sensor_id;sensor_type;location;lat;lon;timestamp;pressure;altitude;pressure_sealevel;temperature;humidity
70015;BME280;57358;51.094;6.760;2023-05-24T00:01:58;101499.59;;;7.52;78.67
70015;BME280;57358;51.094;6.760;2023-05-24T00:04:25;101585.50;;;7.95;78.71
70015;BME280;57358;51.094;6.760;2023-05-24T00:06:55;101587.38;;;7.92;79.54
70015;BME280;57358;51.094;6.760;2023-05-24T00:09:22;101581.59;;;7.79;79.45
70015;BME280;57358;51.094;6.760;2023-05-24T00:11:48;101592.16;;;7.76;80.01
70015;BME280;57358;51.094;6.760;2023-05-24T00:14:15;101602.75;;;7.70;79.93
70015;BME280;57358;51.094;6.760;2023-05-24T00:16:41;101613.34;;;7.64;80.74
70015;BME280;57358;51.094;6.760;2023-05-24T00:19:08;101612.75;;;7.54;81.13
70015;BME280;57358;51.094;6.760;2023-05-24T00:21:37;101614.53;;;7.52;82.91
70015;BME280;57358;51.094;6.760;2023-05-24T00:24:06;101569.22;;;7.17;82.26
70015;BME280;57358;51.094;6.760;2023-05-24T00:26:33;101612.97;;;7.43;82.41
70015;BME280;57358;51.094;6.760;2023-05-24T00:28:59;101619.00;;;7.47;82.99
70015;BME280;57358;51.094;6.760;2023-05-24T00:31:26;101620.81;;;7.43;82.93
70015;BME280;57358;51.094;6.760;2023-05-24T00:33:52;101611.50;;;7.33;82.76
70015;BME280;57358;51.094;6.760;2023-05-24T00:36:19;101611.59;;;7.28;83.77
70015;BME280;57358;51.094;6.760;2023-05-24T00:38:45;101611.59;;;7.28;83.57
70015;BME280;57358;51.094;6.760;2023-05-24T00:41:12;101610.00;;;7.23;83.91
70015;BME280;57358;51.094;6.760;2023-05-24T00:43:38;101600.63;;;7.14;84.55
70015;BME280;57358;51.094;6.760;2023-05-24T00:46:14;101611.09;;;7.14;85.14
70015;BME280;57358;51.094;6.760;2023-05-24T00:48:41;101610.34;;;7.07;84.88
70015;BME280;57358;51.094;6.760;2023-05-24T00:51:08;101614.84;;;7.01;85.57
70015;BME280;57358;51.094;6.760;2023-05-24T00:53:36;101636.59;;;6.99;86.12
70015;BME280;57358;51.094;6.760;2023-05-24T00:56:03;101560.16;;;6.57;86.72
70015;BME280;57358;51.094;6.760;2023-05-24T00:58:30;101627.97;;;6.97;87.04
70015;BME280;57358;51.094;6.760;2023-05-24T01:00:58;101604.06;;;6.77;86.75
70015;BME280;57358;51.094;6.760;2023-05-24T01:03:26;101598.94;;;6.74;87.49
70015;BME280;57358;51.094;6.760;2023-05-24T01:06:02;101630.75;;;6.90;87.65
70015;BME280;57358;51.094;6.760;2023-05-24T01:11:34;101534.16;;;6.13;88.51
70015;BME280;57358;51.094;6.760;2023-05-24T01:16:38;101597.97;;;6.37;90.78
70015;BME280;57358;51.094;6.760;2023-05-24T01:19:28;101636.81;;;6.50;92.52
70015;BME280;57358;51.094;6.760;2023-05-24T01:22:12;101631.19;;;6.26;93.07
70015;BME280;57358;51.094;6.760;2023-05-24T01:24:52;101639.75;;;6.31;93.15
70015;BME280;57358;51.094;6.760;2023-05-24T01:27:22;101569.50;;;5.78;94.87
70015;BME280;57358;51.094;6.760;2023-05-24T01:29:49;101585.09;;;5.82;95.24
70015;BME280;57358;51.094;6.760;2023-05-24T01:32:18;101587.81;;;5.75;96.03
70015;BME280;57358;51.094;6.760;2023-05-24T01:34:45;101634.31;;;5.98;96.84
70015;BME280;57358;51.094;6.760;2023-05-24T01:37:12;101636.88;;;6.00;98.37
70015;BME280;57358;51.094;6.760;2023-05-24T01:39:38;101585.53;;;5.55;98.47
70015;BME280;57358;51.094;6.760;2023-05-24T01:47:57;101608.94;;;5.57;100.00
70015;BME280;57358;51.094;6.760;2023-05-24T01:50:31;101571.13;;;5.34;100.00
70015;BME280;57358;51.094;6.760;2023-05-24T01:53:03;101660.56;;;5.83;100.00
70015;BME280;57358;51.094;6.760;2023-05-24T01:55:31;101596.09;;;5.46;100.00
70015;BME280;57358;51.094;6.760;2023-05-24T01:58:01;101560.09;;;5.18;100.00
70015;BME280;57358;51.094;6.760;2023-05-24T02:00:29;101564.50;;;5.15;100.00
70015;BME280;57358;51.094;6.760;2023-05-24T02:02:56;101584.22;;;5.31;100.00
70015;BME280;57358;51.094;6.760;2023-05-24T02:05:23;101561.09;;;5.11;100.00
70015;BME280;57358;51.094;6.760;2023-05-24T02:07:50;101640.97;;;5.62;100.00
70015;BME280;57358;51.094;6.760;2023-05-24T02:10:16;101568.84;;;5.14;100.00
70015;BME280;57358;51.094;6.760;2023-05-24T02:12:43;101482.31;;;4.47;100.00
70015;BME280;57358;51.094;6.760;2023-05-24T02:15:09;101524.00;;;4.98;100.00
70015;BME280;57358;51.094;6.760;2023-05-24T02:17:36;101636.50;;;5.69;100.00
70015;BME280;57358;51.094;6.760;2023-05-24T02:20:03;101603.91;;;5.48;100.00
70015;BME280;57358;51.094;6.760;2023-05-24T02:22:29;101634.75;;;5.71;100.00
70015;BME280;57358;51.094;6.760;2023-05-24T02:24:56;101588.41;;;5.40;100.00
70015;BME280;57358;51.094;6.760;2023-05-24T02:27:22;101623.47;;;5.70;100.00
70015;BME280;57358;51.094;6.760;2023-05-24T02:29:49;101611.41;;;5.65;100.00
70015;BME280;57358;51.094;6.760;2023-05-24T02:32:15;101610.53;;;5.66;100.00
70015;BME280;57358;51.094;6.760;2023-05-24T02:34:42;101568.44;;;5.39;100.00
70015;BME280;57358;51.094;6.760;2023-05-24T02:37:09;101632.09;;;5.74;100.00
70015;BME280;57358;51.094;6.760;2023-05-24T02:39:40;101639.13;;;5.67;100.00
70015;BME280;57358;51.094;6.760;2023-05-24T02:42:07;101640.03;;;5.68;100.00
70015;BME280;57358;51.094;6.760;2023-05-24T02:44:34;101567.81;;;5.23;100.00
70015;BME280;57358;51.094;6.760;2023-05-24T02:47:00;101595.47;;;5.32;100.00
70015;BME280;57358;51.094;6.760;2023-05-24T02:49:27;101637.56;;;5.58;100.00
70015;BME280;57358;51.094;6.760;2023-05-24T02:51:53;101644.59;;;5.53;100.00
70015;BME280;57358;51.094;6.760;2023-05-24T02:54:20;101584.47;;;5.14;100.00
70015;BME280;57358;51.094;6.760;2023-05-24T02:56:47;101597.38;;;5.20;100.00
70015;BME280;57358;51.094;6.760;2023-05-24T02:59:13;101646.44;;;5.45;100.00
70015;BME280;57358;51.094;6.760;2023-05-24T03:01:40;101563.94;;;4.94;100.00
70015;BME280;57358;51.094;6.760;2023-05-24T03:04:06;101588.09;;;5.04;100.00
70015;BME280;57358;51.094;6.760;2023-05-24T03:06:33;101595.88;;;5.06;100.00
70015;BME280;57358;51.094;6.760;2023-05-24T03:08:59;101609.59;;;5.15;100.00
70015;BME280;57358;51.094;6.760;2023-05-24T03:11:26;101646.53;;;5.39;100.00
70015;BME280;57358;51.094;6.760;2023-05-24T03:13:52;101649.91;;;5.47;100.00
70015;BME280;57358;51.094;6.760;2023-05-24T03:16:19;101659.38;;;5.51;100.00
70015;BME280;57358;51.094;6.760;2023-05-24T03:18:46;101557.16;;;4.86;100.00
70015;BME280;57358;51.094;6.760;2023-05-24T03:21:16;101662.97;;;5.44;100.00
70015;BME280;57358;51.094;6.760;2023-05-24T03:23:43;101572.78;;;4.83;100.00
70015;BME280;57358;51.094;6.760;2023-05-24T03:26:09;101663.06;;;5.38;100.00
70015;BME280;57358;51.094;6.760;2023-05-24T03:28:36;101651.06;;;5.28;100.00
70015;BME280;57358;51.094;6.760;2023-05-24T03:31:02;101663.06;;;5.36;100.00
70015;BME280;57358;51.094;6.760;2023-05-24T03:33:29;101655.25;;;5.36;100.00
70015;BME280;57358;51.094;6.760;2023-05-24T03:35:57;101603.81;;;4.95;100.00
70015;BME280;57358;51.094;6.760;2023-05-24T03:38:23;101589.03;;;4.97;100.00
70015;BME280;57358;51.094;6.760;2023-05-24T03:40:50;101677.63;;;5.48;100.00
70015;BME280;57358;51.094;6.760;2023-05-24T03:43:16;101675.91;;;5.49;100.00
70015;BME280;57358;51.094;6.760;2023-05-24T03:45:43;101610.63;;;5.05;100.00
70015;BME280;57358;51.094;6.760;2023-05-24T03:48:09;101590.81;;;4.95;100.00
70015;BME280;57358;51.094;6.760;2023-05-24T03:50:36;101606.28;;;5.06;100.00
70015;BME280;57358;51.094;6.760;2023-05-24T03:53:03;101691.28;;;5.64;100.00
70015;BME280;57358;51.094;6.760;2023-05-24T03:55:29;101626.84;;;5.23;100.00
70015;BME280;57358;51.094;6.760;2023-05-24T03:57:56;101693.72;;;5.75;100.00
70015;BME280;57358;51.094;6.760;2023-05-24T04:00:22;101698.88;;;5.78;100.00
70015;BME280;57358;51.094;6.760;2023-05-24T04:02:48;101619.09;;;5.19;100.00
70015;BME280;57358;51.094;6.760;2023-05-24T04:05:16;101619.22;;;5.10;100.00
70015;BME280;57358;51.094;6.760;2023-05-24T04:07:42;101703.38;;;5.68;100.00
70015;BME280;57358;51.094;6.760;2023-05-24T04:10:10;101559.44;;;5.06;100.00
70015;BME280;57358;51.094;6.760;2023-05-24T04:12:37;101750.38;;;6.66;100.00
70015;BME280;57358;51.094;6.760;2023-05-24T04:15:04;101699.75;;;6.76;100.00
70015;BME280;57358;51.094;6.760;2023-05-24T04:17:30;101719.59;;;7.26;100.00
70015;BME280;57358;51.094;6.760;2023-05-24T04:20:00;101702.53;;;7.48;100.00
70015;BME280;57358;51.094;6.760;2023-05-24T04:22:27;101741.84;;;8.15;100.00
70015;BME280;57358;51.094;6.760;2023-05-24T04:24:53;101685.53;;;7.68;98.10
70015;BME280;57358;51.094;6.760;2023-05-24T04:27:20;101746.34;;;8.46;95.04
70015;BME280;57358;51.094;6.760;2023-05-24T04:29:47;101728.00;;;8.79;92.46
70015;BME280;57358;51.094;6.760;2023-05-24T04:32:18;101733.44;;;9.32;89.54
70015;BME280;57358;51.094;6.760;2023-05-24T04:34:45;101686.91;;;9.11;85.93
70015;BME280;57358;51.094;6.760;2023-05-24T04:37:12;101668.47;;;9.14;84.51
70015;BME280;57358;51.094;6.760;2023-05-24T04:39:39;101648.63;;;8.78;83.48
70015;BME280;57358;51.094;6.760;2023-05-24T04:42:06;101611.06;;;8.79;83.38
70015;BME280;57358;51.094;6.760;2023-05-24T04:44:33;101597.25;;;9.04;82.29
70015;BME280;57358;51.094;6.760;2023-05-24T04:46:59;101579.44;;;9.14;80.63
70015;BME280;57358;51.094;6.760;2023-05-24T04:49:28;101601.16;;;9.17;80.01
70015;BME280;57358;51.094;6.760;2023-05-24T04:51:55;101686.63;;;10.02;79.76
70015;BME280;57358;51.094;6.760;2023-05-24T04:54:22;101562.28;;;9.05;78.39
70015;BME280;57358;51.094;6.760;2023-05-24T04:56:49;101673.94;;;9.89;79.00
70015;BME280;57358;51.094;6.760;2023-05-24T04:59:16;101673.59;;;10.25;77.91
70015;BME280;57358;51.094;6.760;2023-05-24T05:01:43;101667.78;;;10.66;76.18
70015;BME280;57358;51.094;6.760;2023-05-24T05:04:09;101571.16;;;10.05;75.68
70015;BME280;57358;51.094;6.760;2023-05-24T05:06:36;101650.72;;;10.77;75.50
70015;BME280;57358;51.094;6.760;2023-05-24T05:09:06;101650.28;;;11.34;73.52
70015;BME280;57358;51.094;6.760;2023-05-24T05:11:36;101623.63;;;12.06;71.43
70015;BME280;57358;51.094;6.760;2023-05-24T05:14:03;101608.66;;;12.86;69.68
70015;BME280;57358;51.094;6.760;2023-05-24T05:16:30;101532.66;;;13.32;67.94
70015;BME280;57358;51.094;6.760;2023-05-24T05:18:57;101429.91;;;12.95;65.12
70015;BME280;57358;51.094;6.760;2023-05-24T05:21:23;101403.94;;;12.34;65.84
70015;BME280;57358;51.094;6.760;2023-05-24T05:23:50;101530.84;;;13.15;66.42
70015;BME280;57358;51.094;6.760;2023-05-24T05:26:16;101371.63;;;12.49;64.93
70015;BME280;57358;51.094;6.760;2023-05-24T05:28:43;101421.97;;;13.48;63.58
70015;BME280;57358;51.094;6.760;2023-05-24T05:31:10;101449.59;;;13.74;63.31
70015;BME280;57358;51.094;6.760;2023-05-24T05:33:36;101335.56;;;13.02;63.65
70015;BME280;57358;51.094;6.760;2023-05-24T05:36:03;101480.03;;;14.29;62.97
70015;BME280;57358;51.094;6.760;2023-05-24T05:38:29;101394.72;;;14.28;61.64
70015;BME280;57358;51.094;6.760;2023-05-24T05:40:57;101479.25;;;14.90;61.92
70015;BME280;57358;51.094;6.760;2023-05-24T05:43:24;101392.44;;;14.99;60.03
70015;BME280;57358;51.094;6.760;2023-05-24T05:45:50;101223.38;;;13.31;61.09
70015;BME280;57358;51.094;6.760;2023-05-24T05:48:17;101258.56;;;12.11;63.40
70015;BME280;57358;51.094;6.760;2023-05-24T05:50:43;101500.81;;;12.45;66.27
70015;BME280;57358;51.094;6.760;2023-05-24T05:53:09;101459.22;;;12.34;66.46
70015;BME280;57358;51.094;6.760;2023-05-24T05:55:38;101585.28;;;13.51;65.96
70015;BME280;57358;51.094;6.760;2023-05-24T05:58:05;101467.88;;;13.26;63.92
70015;BME280;57358;51.094;6.760;2023-05-24T06:00:31;101385.19;;;12.76;64.27
70015;BME280;57358;51.094;6.760;2023-05-24T06:02:58;101350.97;;;12.05;65.98
70015;BME280;57358;51.094;6.760;2023-05-24T06:05:24;101291.94;;;10.56;68.77
70015;BME280;57358;51.094;6.760;2023-05-24T06:07:51;101588.19;;;12.34;69.93
70015;BME280;57358;51.094;6.760;2023-05-24T06:10:17;101537.03;;;12.77;67.82
70015;BME280;57358;51.094;6.760;2023-05-24T06:12:44;101526.59;;;12.57;68.10
70015;BME280;57358;51.094;6.760;2023-05-24T06:15:10;101543.50;;;12.70;67.75
70015;BME280;57358;51.094;6.760;2023-05-24T06:17:37;101535.41;;;13.11;67.46
70015;BME280;57358;51.094;6.760;2023-05-24T06:20:04;101495.94;;;13.45;65.50
70015;BME280;57358;51.094;6.760;2023-05-24T06:22:40;101509.84;;;14.15;64.58
70015;BME280;57358;51.094;6.760;2023-05-24T06:25:08;101299.19;;;12.93;63.52
70015;BME280;57358;51.094;6.760;2023-05-24T06:27:34;101397.09;;;13.36;63.99
70015;BME280;57358;51.094;6.760;2023-05-24T06:30:01;101365.81;;;12.77;64.67
70015;BME280;57358;51.094;6.760;2023-05-24T06:32:27;101398.44;;;12.92;64.68
70015;BME280;57358;51.094;6.760;2023-05-24T06:34:54;101370.16;;;12.44;65.60
70015;BME280;57358;51.094;6.760;2023-05-24T06:37:21;101392.03;;;12.08;65.85
70015;BME280;57358;51.094;6.760;2023-05-24T06:39:50;101396.03;;;11.97;66.74
70015;BME280;57358;51.094;6.760;2023-05-24T06:42:17;101446.47;;;12.44;66.41
70015;BME280;57358;51.094;6.760;2023-05-24T06:44:43;101541.94;;;13.03;66.48
70015;BME280;57358;51.094;6.760;2023-05-24T06:47:10;101532.50;;;12.24;68.16
70015;BME280;57358;51.094;6.760;2023-05-24T06:49:36;101572.03;;;12.23;69.50
70015;BME280;57358;51.094;6.760;2023-05-24T06:52:03;101557.56;;;12.33;69.88
70015;BME280;57358;51.094;6.760;2023-05-24T06:54:30;101565.25;;;11.98;70.21
70015;BME280;57358;51.094;6.760;2023-05-24T06:56:56;101616.97;;;11.34;73.05
70015;BME280;57358;51.094;6.760;2023-05-24T06:59:24;101643.94;;;11.40;74.86
70015;BME280;57358;51.094;6.760;2023-05-24T07:01:50;101682.31;;;11.66;74.43
70015;BME280;57358;51.094;6.760;2023-05-24T07:04:23;101648.91;;;11.88;74.35
70015;BME280;57358;51.094;6.760;2023-05-24T07:06:51;101595.19;;;11.95;72.17
70015;BME280;57358;51.094;6.760;2023-05-24T07:09:18;101568.44;;;11.43;72.90
70015;BME280;57358;51.094;6.760;2023-05-24T07:11:45;101568.88;;;11.32;73.28
70015;BME280;57358;51.094;6.760;2023-05-24T07:14:11;101615.13;;;11.79;72.50
70015;BME280;57358;51.094;6.760;2023-05-24T07:16:38;101705.94;;;12.51;73.33
70015;BME280;57358;51.094;6.760;2023-05-24T07:19:07;101570.34;;;12.22;71.44
70015;BME280;57358;51.094;6.760;2023-05-24T07:21:33;101612.97;;;12.87;69.20
70015;BME280;57358;51.094;6.760;2023-05-24T07:24:01;101539.50;;;12.81;68.08
70015;BME280;57358;51.094;6.760;2023-05-24T07:26:29;101459.53;;;12.28;67.27
70015;BME280;57358;51.094;6.760;2023-05-24T07:28:55;101539.75;;;12.38;68.49
70015;BME280;57358;51.094;6.760;2023-05-24T07:31:22;101595.53;;;13.03;67.96
70015;BME280;57358;51.094;6.760;2023-05-24T07:33:48;101528.78;;;12.09;68.66
70015;BME280;57358;51.094;6.760;2023-05-24T07:36:15;101519.94;;;11.91;68.94
70015;BME280;57358;51.094;6.760;2023-05-24T07:38:41;101349.00;;;11.33;67.31
70015;BME280;57358;51.094;6.760;2023-05-24T07:41:07;101580.88;;;12.78;67.64
70015;BME280;57358;51.094;6.760;2023-05-24T07:43:34;101510.63;;;12.60;66.79
70015;BME280;57358;51.094;6.760;2023-05-24T07:46:03;101546.97;;;12.90;66.70
70015;BME280;57358;51.094;6.760;2023-05-24T07:48:29;101494.38;;;13.06;65.73
70015;BME280;57358;51.094;6.760;2023-05-24T07:50:56;101474.53;;;12.98;65.49
70015;BME280;57358;51.094;6.760;2023-05-24T07:53:22;101452.28;;;13.04;64.52
70015;BME280;57358;51.094;6.760;2023-05-24T07:55:48;101443.38;;;12.72;65.26
70015;BME280;57358;51.094;6.760;2023-05-24T07:58:16;101446.47;;;12.80;64.90
70015;BME280;57358;51.094;6.760;2023-05-24T08:00:42;101540.44;;;12.80;67.23
70015;BME280;57358;51.094;6.760;2023-05-24T08:03:08;101618.69;;;13.33;66.87
70015;BME280;57358;51.094;6.760;2023-05-24T08:05:38;101488.34;;;13.21;65.27
70015;BME280;57358;51.094;6.760;2023-05-24T08:08:05;101444.94;;;13.46;63.33
70015;BME280;57358;51.094;6.760;2023-05-24T08:10:32;101422.94;;;13.29;63.53
70015;BME280;57358;51.094;6.760;2023-05-24T08:12:59;101506.41;;;13.64;64.33
70015;BME280;57358;51.094;6.760;2023-05-24T08:15:25;101386.41;;;13.39;62.51
70015;BME280;57358;51.094;6.760;2023-05-24T08:17:52;101500.03;;;13.68;63.83
70015;BME280;57358;51.094;6.760;2023-05-24T08:20:19;101364.25;;;13.08;63.07
70015;BME280;57358;51.094;6.760;2023-05-24T08:22:46;101315.00;;;12.93;62.58
70015;BME280;57358;51.094;6.760;2023-05-24T08:25:13;101363.66;;;12.86;63.06
70015;BME280;57358;51.094;6.760;2023-05-24T08:27:40;101471.03;;;12.98;64.41
70015;BME280;57358;51.094;6.760;2023-05-24T08:30:07;101434.09;;;12.46;65.35
70015;BME280;57358;51.094;6.760;2023-05-24T08:32:34;101485.88;;;12.64;66.32
70015;BME280;57358;51.094;6.760;2023-05-24T08:35:01;101552.78;;;12.96;65.80
70015;BME280;57358;51.094;6.760;2023-05-24T08:37:47;101377.63;;;11.97;65.49
70015;BME280;57358;51.094;6.760;2023-05-24T08:40:15;101558.31;;;13.63;64.03
70015;BME280;57358;51.094;6.760;2023-05-24T08:42:42;101383.50;;;13.26;62.02
70015;BME280;57358;51.094;6.760;2023-05-24T08:45:11;101457.09;;;13.48;62.22
70015;BME280;57358;51.094;6.760;2023-05-24T08:47:39;101441.84;;;13.38;62.44
70015;BME280;57358;51.094;6.760;2023-05-24T08:50:06;101377.59;;;12.70;62.70
70015;BME280;57358;51.094;6.760;2023-05-24T08:52:34;101454.94;;;13.22;62.85
70015;BME280;57358;51.094;6.760;2023-05-24T08:55:03;101426.25;;;12.98;62.70
70015;BME280;57358;51.094;6.760;2023-05-24T08:57:31;101318.25;;;12.11;63.33
70015;BME280;57358;51.094;6.760;2023-05-24T08:59:59;101459.47;;;12.66;63.69
70015;BME280;57358;51.094;6.760;2023-05-24T09:02:26;101301.06;;;11.47;64.50
70015;BME280;57358;51.094;6.760;2023-05-24T09:04:53;101511.09;;;12.87;65.24
70015;BME280;57358;51.094;6.760;2023-05-24T09:07:21;101431.69;;;12.77;63.76
70015;BME280;57358;51.094;6.760;2023-05-24T09:09:57;101380.16;;;12.89;62.98
70015;BME280;57358;51.094;6.760;2023-05-24T09:12:23;101477.81;;;13.56;62.12
70015;BME280;57358;51.094;6.760;2023-05-24T09:15:05;101416.00;;;13.44;62.22
70015;BME280;57358;51.094;6.760;2023-05-24T09:17:34;101493.75;;;14.04;61.61
70015;BME280;57358;51.094;6.760;2023-05-24T09:20:01;101333.25;;;13.13;61.24
70015;BME280;57358;51.094;6.760;2023-05-24T09:22:31;101297.66;;;12.71;61.48
70015;BME280;57358;51.094;6.760;2023-05-24T09:25:03;101471.06;;;13.84;61.52
70015;BME280;57358;51.094;6.760;2023-05-24T09:27:31;101449.28;;;13.96;61.06
70015;BME280;57358;51.094;6.760;2023-05-24T09:29:57;101348.53;;;13.89;59.55
70015;BME280;57358;51.094;6.760;2023-05-24T09:32:24;101173.16;;;12.52;59.95
70015;BME280;57358;51.094;6.760;2023-05-24T09:34:52;101385.69;;;14.16;59.49
70015;BME280;57358;51.094;6.760;2023-05-24T09:37:21;101208.13;;;13.36;58.96
70015;BME280;57358;51.094;6.760;2023-05-24T09:39:57;101405.91;;;14.80;58.86
70015;BME280;57358;51.094;6.760;2023-05-24T09:42:24;101328.59;;;14.46;58.14
70015;BME280;57358;51.094;6.760;2023-05-24T09:45:06;101238.22;;;13.80;58.34
70015;BME280;57358;51.094;6.760;2023-05-24T09:47:36;101435.84;;;14.94;58.10
70015;BME280;57358;51.094;6.760;2023-05-24T09:50:04;101269.47;;;14.18;57.54
70015;BME280;57358;51.094;6.760;2023-05-24T09:52:35;101333.41;;;14.23;58.16
70015;BME280;57358;51.094;6.760;2023-05-24T09:55:12;101421.16;;;15.05;57.77
70015;BME280;57358;51.094;6.760;2023-05-24T09:57:38;101269.34;;;14.94;55.19
70015;BME280;57358;51.094;6.760;2023-05-24T10:00:06;101228.00;;;14.79;55.93
70015;BME280;57358;51.094;6.760;2023-05-24T10:02:39;101304.00;;;15.04;56.35
70015;BME280;57358;51.094;6.760;2023-05-24T10:05:18;101233.97;;;14.38;56.65
70015;BME280;57358;51.094;6.760;2023-05-24T10:07:45;101286.03;;;14.81;56.14
70015;BME280;57358;51.094;6.760;2023-05-24T10:10:12;101220.22;;;14.17;56.62
70015;BME280;57358;51.094;6.760;2023-05-24T10:12:41;101193.84;;;14.17;55.27
70015;BME280;57358;51.094;6.760;2023-05-24T10:15:12;101328.41;;;13.87;58.05
70015;BME280;57358;51.094;6.760;2023-05-24T10:17:38;101447.00;;;14.06;59.94
70015;BME280;57358;51.094;6.760;2023-05-24T10:20:06;101469.47;;;14.45;59.38
70015;BME280;57358;51.094;6.760;2023-05-24T10:22:39;101471.44;;;14.41;59.66
70015;BME280;57358;51.094;6.760;2023-05-24T10:25:07;101400.19;;;14.25;59.01
70015;BME280;57358;51.094;6.760;2023-05-24T10:27:36;101444.53;;;14.50;59.02
70015;BME280;57358;51.094;6.760;2023-05-24T10:30:10;101426.63;;;14.71;57.85
70015;BME280;57358;51.094;6.760;2023-05-24T10:32:41;101446.25;;;14.67;58.80
70015;BME280;57358;51.094;6.760;2023-05-24T10:35:09;101458.59;;;14.97;58.61
70015;BME280;57358;51.094;6.760;2023-05-24T10:37:40;101429.00;;;15.21;57.56
70015;BME280;57358;51.094;6.760;2023-05-24T10:40:16;101397.13;;;15.38;56.00
70015;BME280;57358;51.094;6.760;2023-05-24T10:42:43;101435.66;;;15.71;55.88
70015;BME280;57358;51.094;6.760;2023-05-24T10:45:37;101365.22;;;15.97;54.49
70015;BME280;57358;51.094;6.760;2023-05-24T10:50:54;101251.22;;;15.59;53.53
70015;BME280;57358;51.094;6.760;2023-05-24T10:53:22;101221.19;;;15.18;53.93
70015;BME280;57358;51.094;6.760;2023-05-24T10:55:58;101322.69;;;16.00;53.12
70015;BME280;57358;51.094;6.760;2023-05-24T11:00:58;101109.81;;;15.23;52.10
70015;BME280;57358;51.094;6.760;2023-05-24T11:03:31;101126.81;;;15.73;50.80
70015;BME280;57358;51.094;6.760;2023-05-24T11:05:58;101151.28;;;15.22;52.73
70015;BME280;57358;51.094;6.760;2023-05-24T11:08:30;101181.16;;;15.10;53.18
70015;BME280;57358;51.094;6.760;2023-05-24T11:11:10;101228.09;;;15.06;53.77
70015;BME280;57358;51.094;6.760;2023-05-24T11:13:55;101344.31;;;15.22;55.31
70015;BME280;57358;51.094;6.760;2023-05-24T11:16:35;101306.06;;;15.28;54.50
70015;BME280;57358;51.094;6.760;2023-05-24T11:19:28;101322.50;;;15.04;55.37
70015;BME280;57358;51.094;6.760;2023-05-24T11:21:55;101234.41;;;15.18;53.10
70015;BME280;57358;51.094;6.760;2023-05-24T11:24:25;101412.75;;;16.67;52.70
70015;BME280;57358;51.094;6.760;2023-05-24T11:26:52;101270.94;;;16.87;50.43
70015;BME280;57358;51.094;6.760;2023-05-24T11:29:19;101025.25;;;15.75;49.59
70015;BME280;57358;51.094;6.760;2023-05-24T11:31:50;101150.41;;;16.16;50.34
70015;BME280;57358;51.094;6.760;2023-05-24T11:34:19;101146.97;;;15.88;49.97
70015;BME280;57358;51.094;6.760;2023-05-24T11:36:46;101333.72;;;16.07;53.24
70015;BME280;57358;51.094;6.760;2023-05-24T11:39:13;101345.09;;;15.94;53.01
70015;BME280;57358;51.094;6.760;2023-05-24T11:41:40;101178.13;;;15.70;50.71
70015;BME280;57358;51.094;6.760;2023-05-24T11:44:09;101237.91;;;15.87;51.34
70015;BME280;57358;51.094;6.760;2023-05-24T11:46:38;100970.66;;;14.40;51.31
70015;BME280;57358;51.094;6.760;2023-05-24T11:49:04;101192.00;;;15.47;51.82
70015;BME280;57358;51.094;6.760;2023-05-24T11:51:33;101191.34;;;15.43;52.17
70015;BME280;57358;51.094;6.760;2023-05-24T11:54:00;101137.97;;;14.82;52.30
70015;BME280;57358;51.094;6.760;2023-05-24T11:56:30;101116.75;;;14.41;52.81
70015;BME280;57358;51.094;6.760;2023-05-24T11:59:13;101226.25;;;14.49;54.55
70015;BME280;57358;51.094;6.760;2023-05-24T12:01:41;101261.56;;;14.32;54.98
70015;BME280;57358;51.094;6.760;2023-05-24T12:04:09;101366.91;;;14.37;56.56
70015;BME280;57358;51.094;6.760;2023-05-24T12:06:38;101318.72;;;14.03;57.15
70015;BME280;57358;51.094;6.760;2023-05-24T12:09:06;101337.50;;;14.43;56.33
70015;BME280;57358;51.094;6.760;2023-05-24T12:11:37;101360.59;;;14.55;56.42
70015;BME280;57358;51.094;6.760;2023-05-24T12:14:04;101395.38;;;14.48;56.53
70015;BME280;57358;51.094;6.760;2023-05-24T12:16:31;101332.94;;;14.31;56.71
70015;BME280;57358;51.094;6.760;2023-05-24T12:19:00;101348.69;;;14.48;55.69
70015;BME280;57358;51.094;6.760;2023-05-24T12:21:40;101243.84;;;13.58;56.78
70015;BME280;57358;51.094;6.760;2023-05-24T12:24:10;101344.63;;;14.27;56.81
70015;BME280;57358;51.094;6.760;2023-05-24T12:26:42;101287.16;;;13.86;56.65
70015;BME280;57358;51.094;6.760;2023-05-24T12:29:12;101319.56;;;13.88;57.27
70015;BME280;57358;51.094;6.760;2023-05-24T12:31:40;101462.59;;;14.74;57.51
70015;BME280;57358;51.094;6.760;2023-05-24T12:34:11;101350.03;;;14.86;55.14
70015;BME280;57358;51.094;6.760;2023-05-24T12:36:38;101312.84;;;14.89;54.79
70015;BME280;57358;51.094;6.760;2023-05-24T12:39:27;101396.16;;;15.25;54.88
70015;BME280;57358;51.094;6.760;2023-05-24T12:41:57;101399.09;;;15.63;54.35
70015;BME280;57358;51.094;6.760;2023-05-24T12:44:25;101229.13;;;15.18;53.30
70015;BME280;57358;51.094;6.760;2023-05-24T12:46:53;101199.41;;;14.86;52.94
70015;BME280;57358;51.094;6.760;2023-05-24T12:49:23;101177.53;;;14.69;53.03
70015;BME280;57358;51.094;6.760;2023-05-24T12:51:54;101243.66;;;15.11;52.74
70015;BME280;57358;51.094;6.760;2023-05-24T12:54:22;101279.25;;;15.61;51.50
70015;BME280;57358;51.094;6.760;2023-05-24T12:56:50;101288.59;;;15.81;52.13
70015;BME280;57358;51.094;6.760;2023-05-24T12:59:21;101099.72;;;15.02;51.10
70015;BME280;57358;51.094;6.760;2023-05-24T13:01:47;101351.91;;;16.79;50.86
70015;BME280;57358;51.094;6.760;2023-05-24T13:04:20;101361.81;;;17.28;49.52
70015;BME280;57358;51.094;6.760;2023-05-24T13:06:47;101309.03;;;17.49;48.62
70015;BME280;57358;51.094;6.760;2023-05-24T13:09:14;101315.28;;;17.98;47.72
70015;BME280;57358;51.094;6.760;2023-05-24T13:11:43;101321.38;;;17.37;49.16
70015;BME280;57358;51.094;6.760;2023-05-24T13:14:10;101202.16;;;17.23;47.72
70015;BME280;57358;51.094;6.760;2023-05-24T13:16:37;101162.81;;;17.04;47.72